createdAt,value
2022-10-15T00:01:20.380Z,64.50
2022-10-15T00:03:47.037Z,64.60
2022-10-15T00:06:13.572Z,64.40
2022-10-15T00:08:40.071Z,64.30
2022-10-15T00:11:06.540Z,64.50
2022-10-15T00:13:33.045Z,64.50
2022-10-15T00:15:59.522Z,64.50
2022-10-15T00:18:26.007Z,64.60
2022-10-15T00:20:52.488Z,64.30
2022-10-15T00:23:18.969Z,64.30
2022-10-15T00:25:46.052Z,64.40
2022-10-15T00:28:12.668Z,64.30
2022-10-15T00:30:39.123Z,64.30
2022-10-15T00:33:05.613Z,64.20
2022-10-15T00:35:32.085Z,64.30
2022-10-15T00:37:58.563Z,64.50
2022-10-15T00:40:25.026Z,64.50
2022-10-15T00:42:51.489Z,64.50
2022-10-15T00:45:17.970Z,64.30
2022-10-15T00:47:44.431Z,64.30
2022-10-15T00:50:10.916Z,64.50
2022-10-15T00:52:37.393Z,64.30
2022-10-15T00:55:03.866Z,64.60
2022-10-15T00:57:30.322Z,64.50
2022-10-15T00:59:56.792Z,64.50
2022-10-15T01:02:23.437Z,64.60
2022-10-15T01:04:50.105Z,64.30
2022-10-15T01:09:47.957Z,64.60
2022-10-15T01:12:14.427Z,64.30
2022-10-15T01:14:40.905Z,64.60
2022-10-15T01:17:07.371Z,64.70
2022-10-15T01:19:33.853Z,64.70
2022-10-15T01:22:00.337Z,64.70
2022-10-15T01:24:26.804Z,64.80
2022-10-15T01:26:53.271Z,65.00
2022-10-15T01:29:19.758Z,64.80
2022-10-15T01:31:46.222Z,64.70
2022-10-15T01:34:15.945Z,64.70
2022-10-15T01:36:43.821Z,65.00
2022-10-15T01:39:10.304Z,65.10
2022-10-15T01:41:36.764Z,65.00
2022-10-15T01:44:03.235Z,64.80
2022-10-15T01:46:29.762Z,64.60
2022-10-15T01:48:56.244Z,65.00
2022-10-15T01:51:22.707Z,64.70
2022-10-15T01:53:49.163Z,64.60
2022-10-15T01:56:15.640Z,64.90
2022-10-15T01:58:42.126Z,65.10
2022-10-15T02:01:08.641Z,64.90
2022-10-15T02:03:35.152Z,64.90
2022-10-15T02:06:01.652Z,64.90
2022-10-15T02:08:28.109Z,64.70
2022-10-15T02:10:54.608Z,64.80
2022-10-15T02:13:21.071Z,65.00
2022-10-15T02:15:47.550Z,66.00
2022-10-15T02:18:14.026Z,65.20
2022-10-15T02:20:40.517Z,65.20
2022-10-15T02:23:06.982Z,64.70
2022-10-15T02:25:33.465Z,64.90
2022-10-15T02:27:59.933Z,64.70
2022-10-15T02:30:26.417Z,64.90
2022-10-15T02:32:52.891Z,65.00
2022-10-15T02:35:19.368Z,64.70
2022-10-15T02:37:45.849Z,64.80
2022-10-15T02:40:12.336Z,64.80
2022-10-15T02:42:38.818Z,65.10
2022-10-15T02:45:05.320Z,65.10
2022-10-15T02:47:31.794Z,65.30
2022-10-15T02:49:58.275Z,65.50
2022-10-15T02:52:25.225Z,65.40
2022-10-15T02:54:52.024Z,65.70
2022-10-15T02:57:18.492Z,65.40
2022-10-15T02:59:44.981Z,65.20
2022-10-15T03:02:15.322Z,65.20
2022-10-15T03:04:44.916Z,65.20
2022-10-15T03:07:11.390Z,65.30
2022-10-15T03:09:37.870Z,65.20
2022-10-15T03:12:04.406Z,65.10
2022-10-15T03:14:30.932Z,65.00
2022-10-15T03:16:57.401Z,64.90
2022-10-15T03:19:24.341Z,65.20
2022-10-15T03:21:50.828Z,65.10
2022-10-15T03:24:17.303Z,65.10
2022-10-15T03:26:43.771Z,65.30
2022-10-15T03:29:10.246Z,65.50
2022-10-15T03:31:36.724Z,65.60
2022-10-15T03:34:03.198Z,65.10
2022-10-15T03:36:29.677Z,65.10
2022-10-15T03:38:56.133Z,65.00
2022-10-15T03:41:22.608Z,64.90
2022-10-15T03:43:49.079Z,65.10
2022-10-15T03:46:15.569Z,65.20
2022-10-15T03:48:42.040Z,65.30
2022-10-15T03:51:08.528Z,65.10
2022-10-15T03:53:34.984Z,65.10
2022-10-15T03:56:01.458Z,65.00
2022-10-15T03:58:27.934Z,65.00
2022-10-15T04:00:54.429Z,65.00
2022-10-15T04:03:20.956Z,64.90
2022-10-15T04:05:51.472Z,65.30
2022-10-15T04:08:20.322Z,65.10
2022-10-15T04:10:46.779Z,65.10
2022-10-15T04:13:13.233Z,65.00
2022-10-15T04:15:39.707Z,64.90
2022-10-15T04:18:06.181Z,65.10
2022-10-15T04:20:32.660Z,64.90
2022-10-15T04:22:59.119Z,65.10
2022-10-15T04:25:25.579Z,65.00
2022-10-15T04:27:52.040Z,64.90
2022-10-15T04:30:18.519Z,65.00
2022-10-15T04:32:45.002Z,64.90
2022-10-15T04:35:11.506Z,65.10
2022-10-15T04:37:38.006Z,65.00
2022-10-15T04:40:04.503Z,64.90
2022-10-15T04:42:30.975Z,65.20
2022-10-15T04:44:57.461Z,64.90
2022-10-15T04:47:24.123Z,65.00
2022-10-15T04:49:50.801Z,64.80
2022-10-15T04:52:17.254Z,65.00
2022-10-15T04:54:43.749Z,64.90
2022-10-15T04:57:10.228Z,65.40
2022-10-15T04:59:36.714Z,65.10
2022-10-15T05:02:03.217Z,65.10
2022-10-15T05:04:29.746Z,64.90
2022-10-15T05:06:56.215Z,65.00
2022-10-15T05:09:22.679Z,65.10
2022-10-15T05:11:49.139Z,65.00
2022-10-15T05:14:15.621Z,65.20
2022-10-15T05:16:42.110Z,65.20
2022-10-15T05:19:08.578Z,65.10
2022-10-15T05:21:35.110Z,65.10
2022-10-15T05:24:01.625Z,64.90
2022-10-15T05:26:28.089Z,65.00
2022-10-15T05:28:54.662Z,65.20
2022-10-15T05:31:21.219Z,65.40
2022-10-15T05:33:47.681Z,65.20
2022-10-15T05:36:14.172Z,65.30
2022-10-15T05:38:40.662Z,65.20
2022-10-15T05:41:07.140Z,65.10
2022-10-15T05:43:36.123Z,65.10
2022-10-15T05:46:05.331Z,65.20
2022-10-15T05:48:31.787Z,65.20
2022-10-15T05:50:58.254Z,65.10
2022-10-15T05:53:24.734Z,65.20
2022-10-15T05:55:51.209Z,65.30
2022-10-15T05:58:17.663Z,65.10
2022-10-15T06:00:44.126Z,65.20
2022-10-15T06:03:10.611Z,65.20
2022-10-15T06:05:37.115Z,65.10
2022-10-15T06:08:03.593Z,65.20
2022-10-15T06:10:30.085Z,65.00
2022-10-15T06:12:56.550Z,65.00
2022-10-15T06:15:23.012Z,65.10
2022-10-15T06:17:49.540Z,65.10
2022-10-15T06:20:16.037Z,65.00
2022-10-15T06:22:42.513Z,64.90
2022-10-15T06:25:09.003Z,64.90
2022-10-15T06:27:35.476Z,65.00
2022-10-15T06:30:01.970Z,65.00
2022-10-15T06:32:28.422Z,64.90
2022-10-15T06:34:54.901Z,65.00
2022-10-15T06:37:21.600Z,64.80
2022-10-15T06:39:48.327Z,64.90
2022-10-15T06:42:14.806Z,65.00
2022-10-15T06:44:41.273Z,64.90
2022-10-15T06:47:07.746Z,64.90
2022-10-15T06:49:34.195Z,65.00
2022-10-15T06:52:03.546Z,64.80
2022-10-15T06:54:30.355Z,65.00
2022-10-15T06:56:56.826Z,64.90
2022-10-15T06:59:23.299Z,64.90
2022-10-15T07:01:49.782Z,65.00
2022-10-15T07:04:16.243Z,65.00
2022-10-15T07:06:42.728Z,65.20
2022-10-15T07:09:09.218Z,65.20
2022-10-15T07:11:35.694Z,65.20
2022-10-15T07:14:02.164Z,65.50
2022-10-15T07:16:28.659Z,65.20
2022-10-15T07:18:55.142Z,65.20
2022-10-15T07:21:21.623Z,65.30
2022-10-15T07:23:48.079Z,65.20
2022-10-15T07:26:14.554Z,65.00
2022-10-15T07:28:41.076Z,65.10
2022-10-15T07:31:07.618Z,65.10
2022-10-15T07:33:34.086Z,65.50
2022-10-15T07:36:00.582Z,65.70
2022-10-15T07:38:27.058Z,65.50
2022-10-15T07:40:53.525Z,65.80
2022-10-15T07:43:19.997Z,65.60
2022-10-15T07:45:46.492Z,66.30
2022-10-15T07:48:12.955Z,65.80
2022-10-15T07:50:40.461Z,65.80
2022-10-15T07:53:08.755Z,66.00
2022-10-15T07:55:35.251Z,65.60
2022-10-15T07:58:01.714Z,65.60
2022-10-15T08:00:28.280Z,65.80
2022-10-15T08:02:54.768Z,65.90
2022-10-15T08:05:21.280Z,65.70
2022-10-15T08:07:47.750Z,65.60
2022-10-15T08:10:14.240Z,65.50
2022-10-15T08:12:40.722Z,65.40
2022-10-15T08:15:07.207Z,65.80
2022-10-15T08:17:33.681Z,66.30
2022-10-15T08:20:00.165Z,66.00
2022-10-15T08:22:26.727Z,65.80
2022-10-15T08:24:53.297Z,65.90
2022-10-15T08:27:19.778Z,66.00
2022-10-15T08:29:46.234Z,65.90
2022-10-15T08:32:12.710Z,65.80
2022-10-15T08:34:39.172Z,66.00
2022-10-15T08:37:05.707Z,66.30
2022-10-15T08:39:32.230Z,66.60
2022-10-15T08:41:58.702Z,66.70
2022-10-15T08:44:25.186Z,67.20
2022-10-15T08:46:51.689Z,67.20
2022-10-15T08:49:18.158Z,66.90
2022-10-15T08:51:44.634Z,66.40
2022-10-15T08:54:11.107Z,66.50
2022-10-15T08:56:37.581Z,66.30
2022-10-15T08:59:04.034Z,66.30
2022-10-15T09:01:30.521Z,66.20
2022-10-15T09:03:56.994Z,66.00
2022-10-15T09:06:23.483Z,66.10
2022-10-15T09:08:49.962Z,66.00
2022-10-15T09:11:16.436Z,66.10
2022-10-15T09:13:42.890Z,66.00
2022-10-15T09:16:09.567Z,66.00
2022-10-15T09:18:36.077Z,65.70
2022-10-15T09:21:02.562Z,65.80
2022-10-15T09:23:29.037Z,66.00
2022-10-15T09:25:55.526Z,66.10
2022-10-15T09:28:22.050Z,66.50
2022-10-15T09:30:48.573Z,66.50
2022-10-15T09:33:15.056Z,66.50
2022-10-15T09:35:41.562Z,66.80
2022-10-15T09:38:08.027Z,66.90
2022-10-15T09:40:34.510Z,67.10
2022-10-15T09:43:00.988Z,66.90
2022-10-15T09:45:27.495Z,66.80
2022-10-15T09:47:53.968Z,66.90
2022-10-15T09:50:20.446Z,67.00
2022-10-15T09:52:46.916Z,66.90
2022-10-15T09:55:13.366Z,67.20
2022-10-15T09:57:39.847Z,66.90
2022-10-15T10:00:06.312Z,67.00
2022-10-15T10:02:32.844Z,67.00
2022-10-15T10:04:59.350Z,67.30
2022-10-15T10:07:25.819Z,67.20
2022-10-15T10:09:52.306Z,67.30
2022-10-15T10:12:18.796Z,67.40
2022-10-15T10:14:45.264Z,67.50
2022-10-15T10:17:11.745Z,67.40
2022-10-15T10:19:38.204Z,67.70
2022-10-15T10:22:04.877Z,67.60
2022-10-15T10:24:31.390Z,67.50
2022-10-15T10:26:57.889Z,67.60
2022-10-15T10:29:39.312Z,67.70
2022-10-15T10:32:05.865Z,67.50
2022-10-15T10:34:32.317Z,67.50
2022-10-15T10:36:58.796Z,67.50
2022-10-15T10:39:25.370Z,67.20
2022-10-15T10:41:51.837Z,66.90
2022-10-15T10:44:18.312Z,66.90
2022-10-15T10:46:44.789Z,67.40
2022-10-15T10:49:11.277Z,67.20
2022-10-15T10:51:37.743Z,67.10
2022-10-15T10:54:04.210Z,67.30
2022-10-15T10:56:30.696Z,67.20
2022-10-15T10:58:57.171Z,68.00
2022-10-15T11:01:23.714Z,67.10
2022-10-15T11:03:50.214Z,67.50
2022-10-15T11:06:16.683Z,67.00
2022-10-15T11:08:43.145Z,67.20
2022-10-15T11:11:09.636Z,67.10
2022-10-15T11:13:36.109Z,66.90
2022-10-15T11:16:02.598Z,66.90
2022-10-15T11:18:29.085Z,67.10
2022-10-15T11:20:59.723Z,67.20
2022-10-15T11:23:28.196Z,67.40
2022-10-15T11:25:54.674Z,67.50
2022-10-15T11:28:21.249Z,67.20
2022-10-15T11:30:47.768Z,67.20
2022-10-15T11:33:14.660Z,66.90
2022-10-15T11:35:52.934Z,67.10
2022-10-15T11:38:19.652Z,67.00
2022-10-15T11:40:46.132Z,67.10
2022-10-15T11:43:12.604Z,67.60
2022-10-15T11:45:39.098Z,66.90
2022-10-15T11:48:05.565Z,66.90
2022-10-15T11:50:32.075Z,67.00
2022-10-15T11:52:58.565Z,66.90
2022-10-15T11:55:25.036Z,67.40
2022-10-15T11:57:51.518Z,66.60
2022-10-15T12:00:17.989Z,67.10
2022-10-15T12:02:44.465Z,66.80
2022-10-15T12:05:10.937Z,67.40
2022-10-15T12:07:37.414Z,67.10
2022-10-15T12:10:03.890Z,66.90
2022-10-15T12:12:30.389Z,67.50
2022-10-15T12:14:56.848Z,67.20
2022-10-15T12:17:23.343Z,67.20
2022-10-15T12:19:49.805Z,67.40
2022-10-15T12:22:16.269Z,67.00
2022-10-15T12:24:42.741Z,67.20
2022-10-15T12:27:09.224Z,67.20
2022-10-15T12:29:35.716Z,67.40
2022-10-15T12:32:02.190Z,67.60
2022-10-15T12:34:28.642Z,67.60
2022-10-15T12:36:55.116Z,67.40
2022-10-15T12:39:28.114Z,67.00
2022-10-15T12:42:08.067Z,67.40
2022-10-15T12:44:34.527Z,67.20
2022-10-15T12:47:01.014Z,67.40
2022-10-15T12:49:27.489Z,67.40
2022-10-15T12:51:56.161Z,67.60
2022-10-15T12:54:22.988Z,67.40
2022-10-15T12:56:49.451Z,68.00
2022-10-15T12:59:15.917Z,67.30
2022-10-15T13:01:42.398Z,67.50
2022-10-15T13:04:08.863Z,67.50
2022-10-15T13:06:35.335Z,67.80
2022-10-15T13:09:01.895Z,67.80
2022-10-15T13:11:28.419Z,68.40
2022-10-15T13:13:54.889Z,67.90
2022-10-15T13:16:21.361Z,67.70
2022-10-15T13:18:47.806Z,67.80
2022-10-15T13:21:14.298Z,67.70
2022-10-15T13:23:40.771Z,67.80
2022-10-15T13:26:07.261Z,67.90
2022-10-15T13:28:33.827Z,67.80
2022-10-15T13:31:00.378Z,68.00
2022-10-15T13:33:26.864Z,68.10
2022-10-15T13:35:53.365Z,68.40
2022-10-15T13:38:19.828Z,68.10
2022-10-15T13:40:46.359Z,67.70
2022-10-15T13:43:12.845Z,68.30
2022-10-15T13:45:39.348Z,68.40
2022-10-15T13:48:05.811Z,68.40
2022-10-15T13:50:32.302Z,68.50
2022-10-15T13:52:58.773Z,68.40
2022-10-15T13:55:25.290Z,68.50
2022-10-15T13:57:51.758Z,68.80
2022-10-15T14:00:18.214Z,68.50
2022-10-15T14:02:44.727Z,68.90
2022-10-15T14:05:11.196Z,68.50
2022-10-15T14:07:37.679Z,68.70
2022-10-15T14:10:04.152Z,68.40
2022-10-15T14:12:30.625Z,68.50
2022-10-15T14:14:57.103Z,68.70
2022-10-15T14:17:23.796Z,68.80
2022-10-15T14:20:02.169Z,68.80
2022-10-15T14:22:36.860Z,68.90
2022-10-15T14:25:03.413Z,68.80
2022-10-15T14:27:29.905Z,69.00
2022-10-15T14:29:56.398Z,69.10
2022-10-15T14:32:22.869Z,68.90
2022-10-15T14:34:49.344Z,69.10
2022-10-15T14:37:15.811Z,69.20
2022-10-15T14:39:42.279Z,69.10
2022-10-15T14:42:08.754Z,69.10
2022-10-15T14:44:35.232Z,68.90
2022-10-15T14:47:01.723Z,69.00
2022-10-15T14:49:28.210Z,69.10
2022-10-15T14:51:54.707Z,68.70
2022-10-15T14:54:21.173Z,69.20
2022-10-15T14:56:47.667Z,69.20
2022-10-15T14:59:14.141Z,69.40
2022-10-15T15:01:40.676Z,69.50
2022-10-15T15:04:07.174Z,69.50
2022-10-15T15:06:33.678Z,69.60
2022-10-15T15:09:00.149Z,69.70
2022-10-15T15:11:26.650Z,70.00
2022-10-15T15:13:53.117Z,69.90
2022-10-15T15:16:19.606Z,69.90
2022-10-15T15:18:46.076Z,69.90
2022-10-15T15:21:12.558Z,69.70
2022-10-15T15:23:39.033Z,70.00
2022-10-15T15:26:05.532Z,70.30
2022-10-15T15:28:32.030Z,69.80
2022-10-15T15:30:58.570Z,70.30
2022-10-15T15:33:25.031Z,70.00
2022-10-15T15:35:51.536Z,70.10
2022-10-15T15:38:18.029Z,70.30
2022-10-15T15:40:44.497Z,70.30
2022-10-15T15:43:10.984Z,70.00
2022-10-15T15:45:37.468Z,70.10
2022-10-15T15:48:03.945Z,70.00
2022-10-15T15:50:30.403Z,70.00
2022-10-15T15:52:56.869Z,70.10
2022-10-15T15:55:23.350Z,69.80
2022-10-15T15:57:50.631Z,70.00
2022-10-15T16:00:17.083Z,69.90
2022-10-15T16:02:43.572Z,69.90
2022-10-15T16:05:10.045Z,69.90
2022-10-15T16:07:36.530Z,69.90
2022-10-15T16:10:03.004Z,70.10
2022-10-15T16:12:29.491Z,69.90
2022-10-15T16:14:55.980Z,69.90
2022-10-15T16:17:22.638Z,69.80
2022-10-15T16:19:49.238Z,69.80
2022-10-15T16:22:15.722Z,69.80
2022-10-15T16:24:42.191Z,70.00
2022-10-15T16:27:08.690Z,69.80
2022-10-15T16:29:35.161Z,69.80
2022-10-15T16:32:01.628Z,69.80
2022-10-15T16:34:28.103Z,69.80
2022-10-15T16:36:54.565Z,69.80
2022-10-15T16:39:21.034Z,70.00
2022-10-15T16:41:47.527Z,70.00
2022-10-15T16:44:13.996Z,69.60
2022-10-15T16:46:40.464Z,69.90
2022-10-15T16:49:06.950Z,70.00
2022-10-15T16:51:33.433Z,69.90
2022-10-15T16:53:59.904Z,70.00
2022-10-15T16:56:26.468Z,69.90
2022-10-15T16:58:52.954Z,69.70
2022-10-15T17:01:19.501Z,69.80
2022-10-15T17:03:46.042Z,70.00
2022-10-15T17:06:12.518Z,69.90
2022-10-15T17:08:39.023Z,69.70
2022-10-15T17:11:05.491Z,70.00
2022-10-15T17:13:31.998Z,69.80
2022-10-15T17:16:01.154Z,70.10
2022-10-15T17:18:27.790Z,70.00
2022-10-15T17:20:54.267Z,70.00
2022-10-15T17:23:20.761Z,70.00
2022-10-15T17:25:47.228Z,70.30
2022-10-15T17:28:14.891Z,70.00
2022-10-15T17:30:41.575Z,69.90
2022-10-15T17:33:08.095Z,70.10
2022-10-15T17:35:34.557Z,71.00
2022-10-15T17:38:01.040Z,69.90
2022-10-15T17:40:27.583Z,70.00
2022-10-15T17:42:54.076Z,70.10
2022-10-15T17:45:20.543Z,70.40
2022-10-15T17:47:47.027Z,70.10
2022-10-15T17:50:13.496Z,70.00
2022-10-15T17:52:39.966Z,70.00
2022-10-15T17:55:06.439Z,70.10
2022-10-15T17:57:32.924Z,70.00
2022-10-15T17:59:59.445Z,69.80
2022-10-15T18:02:25.970Z,69.90
2022-10-15T18:04:52.463Z,69.90
2022-10-15T18:07:18.937Z,69.90
2022-10-15T18:09:45.428Z,69.90
2022-10-15T18:12:11.911Z,69.30
2022-10-15T18:14:38.389Z,69.50
2022-10-15T18:17:04.853Z,69.80
2022-10-15T18:19:31.333Z,69.40
2022-10-15T18:21:57.802Z,69.60
2022-10-15T18:24:24.294Z,69.30
2022-10-15T18:26:50.771Z,69.40
2022-10-15T18:29:17.278Z,69.20
2022-10-15T18:31:43.753Z,69.10
2022-10-15T18:34:10.261Z,69.10
2022-10-15T18:36:36.729Z,69.40
2022-10-15T18:39:03.215Z,69.00
2022-10-15T18:41:29.745Z,68.60
2022-10-15T18:43:56.386Z,68.60
2022-10-15T18:46:22.865Z,68.90
2022-10-15T18:48:49.333Z,69.00
2022-10-15T18:51:15.806Z,68.90
2022-10-15T18:53:42.281Z,69.10
2022-10-15T18:56:08.752Z,69.50
2022-10-15T18:58:35.219Z,68.90
2022-10-15T19:01:01.707Z,68.40
2022-10-15T19:03:28.173Z,69.40
2022-10-15T19:05:54.641Z,69.10
2022-10-15T19:08:21.535Z,69.00
2022-10-15T19:10:48.064Z,69.30
2022-10-15T19:13:14.539Z,69.40
2022-10-15T19:15:41.014Z,69.20
2022-10-15T19:18:07.485Z,70.20
2022-10-15T19:20:33.957Z,69.20
2022-10-15T19:23:00.415Z,68.90
2022-10-15T19:25:26.910Z,69.10
2022-10-15T19:27:53.394Z,69.10
2022-10-15T19:30:19.870Z,69.10
2022-10-15T19:32:46.356Z,68.90
2022-10-15T19:35:12.816Z,69.00
2022-10-15T19:37:39.282Z,69.30
2022-10-15T19:40:05.756Z,69.30
2022-10-15T19:42:32.234Z,69.30
2022-10-15T19:44:58.701Z,68.90
2022-10-15T19:47:28.230Z,69.00
2022-10-15T19:49:54.910Z,68.90
2022-10-15T19:52:26.857Z,69.30
2022-10-15T19:54:53.337Z,69.00
2022-10-15T19:57:19.806Z,69.40
2022-10-15T19:59:46.285Z,69.70
2022-10-15T20:02:12.769Z,69.20
2022-10-15T20:04:39.241Z,69.00
2022-10-15T20:07:05.722Z,69.40
2022-10-15T20:09:32.202Z,69.70
2022-10-15T20:11:58.663Z,69.20
2022-10-15T20:14:25.145Z,68.90
2022-10-15T20:16:51.611Z,69.30
2022-10-15T20:19:18.093Z,69.10
2022-10-15T20:21:44.590Z,69.10
2022-10-15T20:24:11.125Z,69.10
2022-10-15T20:26:37.574Z,68.90
2022-10-15T20:29:04.083Z,69.20
2022-10-15T20:31:30.617Z,69.30
2022-10-15T20:33:57.087Z,69.30
2022-10-15T20:36:24.108Z,68.60
2022-10-15T20:38:50.690Z,69.40
2022-10-15T20:41:17.179Z,69.70
2022-10-15T20:43:43.659Z,69.40
2022-10-15T20:46:10.128Z,70.20
2022-10-15T20:48:36.602Z,69.50
2022-10-15T20:51:03.063Z,69.00
2022-10-15T20:53:29.520Z,69.40
2022-10-15T20:55:55.988Z,69.70
2022-10-15T20:58:22.464Z,69.80
2022-10-15T21:00:48.948Z,69.60
2022-10-15T21:03:15.418Z,69.80
2022-10-15T21:05:41.911Z,69.60
2022-10-15T21:08:08.387Z,69.80
2022-10-15T21:10:34.863Z,69.60
2022-10-15T21:13:01.319Z,69.40
2022-10-15T21:15:27.786Z,69.60
2022-10-15T21:17:54.338Z,69.40
2022-10-15T21:20:20.824Z,69.70
2022-10-15T21:22:47.336Z,69.60
2022-10-15T21:25:13.820Z,69.20
2022-10-15T21:27:40.293Z,69.40
2022-10-15T21:30:06.764Z,69.30
2022-10-15T21:32:33.235Z,69.40
2022-10-15T21:34:59.707Z,69.30
2022-10-15T21:37:26.401Z,68.90
2022-10-15T21:39:53.123Z,69.20
2022-10-15T21:42:19.592Z,69.30
2022-10-15T21:44:46.082Z,69.20
2022-10-15T21:47:15.169Z,69.20
2022-10-15T21:49:42.021Z,69.00
2022-10-15T21:52:08.489Z,69.20
2022-10-15T21:54:34.970Z,68.90
2022-10-15T21:57:01.456Z,68.70
2022-10-15T21:59:27.923Z,68.90
2022-10-15T22:01:54.467Z,68.90
2022-10-15T22:04:21.023Z,68.80
2022-10-15T22:06:47.511Z,68.80
2022-10-15T22:09:13.969Z,69.00
2022-10-15T22:11:40.445Z,68.90
2022-10-15T22:14:06.905Z,69.40
2022-10-15T22:16:33.394Z,69.00
2022-10-15T22:18:59.879Z,69.00
2022-10-15T22:21:26.360Z,69.10
2022-10-15T22:23:52.843Z,69.00
2022-10-15T22:26:19.321Z,68.90
2022-10-15T22:28:45.825Z,69.00
2022-10-15T22:31:12.342Z,69.20
2022-10-15T22:33:38.822Z,69.20
2022-10-15T22:36:05.299Z,69.00
2022-10-15T22:38:31.770Z,69.20
2022-10-15T22:40:58.244Z,69.00
2022-10-15T22:43:24.708Z,69.00
2022-10-15T22:45:51.192Z,69.00
2022-10-15T22:48:17.663Z,69.00
2022-10-15T22:50:44.146Z,68.80
2022-10-15T22:53:10.621Z,68.50
2022-10-15T22:55:37.093Z,68.70
2022-10-15T22:58:04.026Z,68.50
2022-10-15T23:00:30.500Z,68.70
2022-10-15T23:02:56.964Z,68.40
2022-10-15T23:05:23.465Z,68.50
2022-10-15T23:07:49.924Z,68.60
2022-10-15T23:10:16.416Z,68.50
2022-10-15T23:12:42.892Z,68.50
2022-10-15T23:15:09.356Z,68.30
2022-10-15T23:17:35.822Z,68.50
2022-10-15T23:20:02.301Z,68.60
2022-10-15T23:22:28.879Z,68.10
2022-10-15T23:24:55.373Z,68.20
2022-10-15T23:27:21.848Z,68.20
2022-10-15T23:29:53.552Z,68.50
2022-10-15T23:32:28.426Z,68.40
2022-10-15T23:34:54.894Z,68.30
2022-10-15T23:37:21.363Z,68.40
2022-10-15T23:39:47.827Z,68.50
2022-10-15T23:42:14.300Z,68.20
2022-10-15T23:44:40.771Z,68.50
2022-10-15T23:47:07.261Z,68.20
2022-10-15T23:49:33.738Z,68.50
2022-10-15T23:52:00.219Z,68.10
2022-10-15T23:54:26.703Z,68.20
2022-10-15T23:56:53.196Z,67.90
2022-10-15T23:59:19.679Z,68.00
